createdAt,value
2022-10-17T00:00:43.826Z,45.25
2022-10-17T00:03:25.474Z,41.45
2022-10-17T00:06:06.859Z,43.92
2022-10-17T00:08:45.488Z,35.38
2022-10-17T00:11:27.968Z,35.80
2022-10-17T00:14:05.602Z,38.13
2022-10-17T00:16:41.785Z,41.38
2022-10-17T00:19:14.487Z,36.42
2022-10-17T00:21:52.356Z,38.00
2022-10-17T00:24:24.874Z,41.38
2022-10-17T00:27:10.884Z,39.47
2022-10-17T00:30:06.732Z,40.47
2022-10-17T00:32:47.601Z,41.47
2022-10-17T00:40:46.886Z,37.75
2022-10-17T00:43:26.807Z,36.58
2022-10-17T00:46:15.182Z,44.75
2022-10-17T00:48:59.906Z,42.63
2022-10-17T00:51:54.742Z,41.88
2022-10-17T00:54:40.461Z,42.95
2022-10-17T00:57:12.628Z,41.13
2022-10-17T00:59:53.934Z,39.22
2022-10-17T01:02:30.816Z,40.63
2022-10-17T01:05:12.551Z,41.47
2022-10-17T01:07:47.121Z,37.17
2022-10-17T01:10:26.232Z,39.13
2022-10-17T01:13:31.538Z,36.15
2022-10-17T01:16:36.562Z,39.38
2022-10-17T01:19:21.327Z,39.22
2022-10-17T01:22:25.164Z,39.65
2022-10-17T01:25:41.516Z,40.83
2022-10-17T01:28:39.824Z,35.90
2022-10-17T01:31:26.070Z,39.92
2022-10-17T01:34:19.670Z,40.40
2022-10-17T01:37:05.750Z,41.00
2022-10-17T01:40:06.183Z,51.08
2022-10-17T01:43:09.648Z,34.08
2022-10-17T01:45:58.925Z,36.85
2022-10-17T01:48:51.085Z,46.15
2022-10-17T01:51:59.488Z,44.70
2022-10-17T01:54:43.054Z,41.90
2022-10-17T01:57:42.506Z,42.30
2022-10-17T02:00:18.635Z,43.88
2022-10-17T02:03:18.230Z,44.10
2022-10-17T02:06:00.521Z,37.85
2022-10-17T02:09:29.117Z,45.03
2022-10-17T02:12:14.842Z,38.83
2022-10-17T02:15:04.702Z,41.30
2022-10-17T02:17:59.968Z,44.45
2022-10-17T02:20:50.762Z,51.00
2022-10-17T02:23:44.669Z,47.42
2022-10-17T02:27:05.536Z,43.45
2022-10-17T02:30:15.851Z,44.90
2022-10-17T02:33:12.554Z,43.83
2022-10-17T02:35:52.539Z,46.78
2022-10-17T02:38:30.288Z,51.67
2022-10-17T02:41:13.881Z,49.53
2022-10-17T02:43:52.439Z,52.40
2022-10-17T02:46:32.893Z,53.53
2022-10-17T02:49:14.588Z,54.10
2022-10-17T02:52:16.520Z,49.90
2022-10-17T02:55:11.887Z,49.80
2022-10-17T02:57:48.443Z,50.22
2022-10-17T03:00:27.945Z,50.30
2022-10-17T03:03:06.537Z,50.40
2022-10-17T03:05:44.453Z,50.63
2022-10-17T03:08:31.951Z,50.63
2022-10-17T03:11:31.574Z,34.80
2022-10-17T03:14:10.710Z,51.45
2022-10-17T03:16:57.392Z,50.05
2022-10-17T03:19:32.460Z,55.50
2022-10-17T03:22:10.996Z,49.55
2022-10-17T03:24:48.809Z,58.08
2022-10-17T03:27:25.048Z,53.40
2022-10-17T03:30:05.578Z,54.17
2022-10-17T03:32:45.603Z,65.00
2022-10-17T03:35:23.491Z,60.80
2022-10-17T03:38:07.344Z,56.90
2022-10-17T03:40:43.581Z,57.63
2022-10-17T03:43:22.333Z,57.70
2022-10-17T03:46:01.670Z,59.38
2022-10-17T03:48:34.843Z,55.83
2022-10-17T03:51:28.240Z,53.30
2022-10-17T03:54:10.439Z,55.92
2022-10-17T03:56:47.449Z,55.17
2022-10-17T03:59:28.461Z,58.03
2022-10-17T04:02:09.323Z,53.95
2022-10-17T04:04:51.569Z,53.92
2022-10-17T04:07:21.184Z,56.33
2022-10-17T04:09:58.508Z,51.83
2022-10-17T04:12:45.307Z,55.80
2022-10-17T04:15:16.301Z,61.78
2022-10-17T04:17:44.578Z,57.17
2022-10-17T04:20:17.659Z,53.53
2022-10-17T04:22:56.517Z,50.07
2022-10-17T04:25:36.837Z,55.85
2022-10-17T04:28:18.771Z,55.88
2022-10-17T04:31:11.950Z,56.45
2022-10-17T04:34:21.367Z,56.13
2022-10-17T04:37:05.319Z,47.85
2022-10-17T04:39:41.572Z,52.70
2022-10-17T04:42:14.012Z,51.65
2022-10-17T04:45:04.307Z,50.95
2022-10-17T04:47:39.362Z,51.35
2022-10-17T04:50:12.378Z,53.90
2022-10-17T04:53:00.720Z,59.53
2022-10-17T04:55:41.961Z,51.60
2022-10-17T04:58:20.062Z,51.28
2022-10-17T05:00:56.699Z,59.50
2022-10-17T05:03:45.794Z,56.22
2022-10-17T05:06:21.444Z,54.95
2022-10-17T05:09:10.007Z,57.53
2022-10-17T05:11:44.147Z,55.90
2022-10-17T05:14:24.860Z,57.30
2022-10-17T05:17:11.346Z,55.92
2022-10-17T05:19:41.774Z,51.30
2022-10-17T05:22:28.055Z,58.65
2022-10-17T05:25:06.977Z,59.70
2022-10-17T05:27:34.243Z,54.13
2022-10-17T05:30:12.520Z,55.45
2022-10-17T05:32:45.446Z,54.83
2022-10-17T05:35:15.893Z,57.08
2022-10-17T05:38:02.601Z,62.88
2022-10-17T05:40:43.489Z,60.88
2022-10-17T05:43:28.164Z,63.03
2022-10-17T05:46:29.448Z,62.92
2022-10-17T05:49:03.598Z,58.80
2022-10-17T05:51:51.680Z,68.03
2022-10-17T05:54:24.537Z,68.05
2022-10-17T05:57:08.722Z,63.53
2022-10-17T05:59:56.319Z,68.75
2022-10-17T06:02:51.548Z,68.15
2022-10-17T06:05:31.549Z,71.07
2022-10-17T06:08:14.926Z,70.70
2022-10-17T06:10:55.108Z,72.15
2022-10-17T06:13:37.081Z,78.07
2022-10-17T06:16:42.244Z,83.47
2022-10-17T06:19:12.269Z,88.65
2022-10-17T06:21:52.395Z,90.90
2022-10-17T06:24:35.031Z,78.40
2022-10-17T06:27:17.696Z,81.07
2022-10-17T06:30:01.604Z,81.68
2022-10-17T06:32:39.526Z,75.18
2022-10-17T06:35:21.400Z,75.40
2022-10-17T06:38:01.144Z,69.45
2022-10-17T06:40:56.886Z,71.53
2022-10-17T06:43:39.632Z,65.93
2022-10-17T06:46:31.556Z,63.90
2022-10-17T06:49:30.012Z,55.80
2022-10-17T06:52:33.381Z,47.05
2022-10-17T06:55:50.063Z,40.60
2022-10-17T06:58:43.817Z,38.72
2022-10-17T07:01:40.741Z,35.35
2022-10-17T07:04:33.910Z,30.08
2022-10-17T07:07:24.296Z,36.53
2022-10-17T07:10:15.756Z,29.58
2022-10-17T07:12:58.411Z,25.27
2022-10-17T07:15:44.279Z,32.23
2022-10-17T07:18:27.368Z,29.27
2022-10-17T07:21:11.459Z,22.15
2022-10-17T07:23:59.335Z,27.67
2022-10-17T07:26:32.175Z,23.00
2022-10-17T07:29:13.985Z,22.70
2022-10-17T07:32:18.472Z,23.50
2022-10-17T07:35:21.364Z,20.63
2022-10-17T07:38:11.968Z,19.73
2022-10-17T07:40:51.173Z,19.23
2022-10-17T07:43:30.996Z,20.73
2022-10-17T07:46:11.595Z,18.48
2022-10-17T07:48:50.042Z,21.77
2022-10-17T07:51:34.029Z,18.48
2022-10-17T07:54:12.230Z,18.80
2022-10-17T07:56:53.710Z,19.48
2022-10-17T07:59:38.642Z,16.98
2022-10-17T08:02:23.761Z,17.08
2022-10-17T08:04:55.947Z,22.13
2022-10-17T08:07:35.216Z,17.88
2022-10-17T08:10:16.722Z,17.67
2022-10-17T08:13:01.822Z,23.80
2022-10-17T08:15:45.517Z,17.75
2022-10-17T08:18:20.352Z,24.08
2022-10-17T08:20:58.050Z,18.02
2022-10-17T08:23:35.814Z,17.17
2022-10-17T08:26:20.041Z,22.38
2022-10-17T08:29:06.406Z,21.48
2022-10-17T08:31:47.484Z,17.85
2022-10-17T08:34:22.911Z,17.02
2022-10-17T08:37:04.587Z,22.13
2022-10-17T08:39:44.793Z,16.70
2022-10-17T08:42:29.851Z,18.33
2022-10-17T08:45:39.182Z,20.38
2022-10-17T08:48:20.623Z,16.83
2022-10-17T08:51:11.590Z,18.27
2022-10-17T08:54:00.829Z,14.82
2022-10-17T08:56:51.685Z,16.02
2022-10-17T08:59:37.310Z,20.33
2022-10-17T09:02:53.262Z,17.02
2022-10-17T09:05:59.180Z,16.35
2022-10-17T09:08:43.686Z,16.13
2022-10-17T09:11:38.695Z,18.17
2022-10-17T09:14:27.005Z,20.67
2022-10-17T09:17:14.510Z,19.58
2022-10-17T09:20:07.471Z,18.05
2022-10-17T09:22:52.390Z,16.25
2022-10-17T09:25:41.297Z,14.88
2022-10-17T09:28:36.096Z,16.42
2022-10-17T09:31:29.485Z,14.73
2022-10-17T09:34:09.401Z,14.47
2022-10-17T09:36:48.686Z,15.70
2022-10-17T09:39:26.844Z,14.57
2022-10-17T09:42:07.693Z,13.13
2022-10-17T09:45:19.673Z,15.75
2022-10-17T09:48:13.401Z,11.90
2022-10-17T09:50:42.891Z,19.40
2022-10-17T09:53:36.177Z,14.25
2022-10-17T09:56:13.036Z,12.25
2022-10-17T09:59:00.790Z,13.70
2022-10-17T10:01:44.439Z,14.02
2022-10-17T10:04:21.596Z,13.63
2022-10-17T10:07:15.989Z,11.35
2022-10-17T10:09:50.395Z,11.32
2022-10-17T10:12:39.003Z,11.80
2022-10-17T10:15:37.794Z,15.82
2022-10-17T10:18:42.068Z,12.23
2022-10-17T10:21:22.729Z,16.70
2022-10-17T10:24:13.381Z,12.73
2022-10-17T10:26:56.096Z,10.95
2022-10-17T10:29:35.388Z,15.18
2022-10-17T10:32:20.580Z,9.00
2022-10-17T10:35:23.961Z,13.25
2022-10-17T10:38:04.832Z,13.70
2022-10-17T10:40:46.756Z,13.15
2022-10-17T10:44:01.911Z,13.35
2022-10-17T10:46:43.528Z,11.05
2022-10-17T10:49:34.089Z,7.68
2022-10-17T10:52:15.150Z,9.75
2022-10-17T10:55:14.494Z,9.15
2022-10-17T10:57:52.902Z,12.95
2022-10-17T11:00:36.642Z,10.70
2022-10-17T11:03:26.537Z,10.18
2022-10-17T11:06:36.013Z,15.45
2022-10-17T11:09:21.621Z,21.38
2022-10-17T11:12:55.830Z,15.82
2022-10-17T11:15:39.879Z,15.52
2022-10-17T11:18:46.295Z,8.65
2022-10-17T11:24:50.049Z,9.63
2022-10-17T11:28:30.124Z,10.48
2022-10-17T11:31:25.007Z,9.65
2022-10-17T11:34:28.904Z,8.65
2022-10-17T11:37:40.864Z,9.88
2022-10-17T11:40:36.805Z,7.20
2022-10-17T11:43:22.246Z,12.75
2022-10-17T11:46:04.448Z,7.85
2022-10-17T11:48:47.207Z,13.40
2022-10-17T11:54:41.970Z,6.75
2022-10-17T11:57:29.550Z,9.70
2022-10-17T12:00:13.611Z,11.13
2022-10-17T12:03:19.047Z,10.65
2022-10-17T12:05:59.276Z,7.28
2022-10-17T12:08:41.719Z,7.32
2022-10-17T12:11:36.950Z,10.27
2022-10-17T12:14:39.200Z,10.40
2022-10-17T12:17:41.193Z,13.57
2022-10-17T12:20:29.015Z,8.65
2022-10-17T12:23:23.864Z,9.45
2022-10-17T12:26:05.277Z,8.13
2022-10-17T12:28:45.604Z,7.80
2022-10-17T12:31:21.945Z,7.13
2022-10-17T12:34:04.953Z,9.02
2022-10-17T12:36:46.980Z,7.57
2022-10-17T12:39:27.783Z,7.60
2022-10-17T12:42:06.550Z,7.50
2022-10-17T12:44:38.673Z,8.02
2022-10-17T12:47:55.360Z,10.10
2022-10-17T12:51:34.065Z,7.95
2022-10-17T12:54:07.133Z,9.82
2022-10-17T12:56:47.020Z,10.23
2022-10-17T12:59:37.341Z,11.80
2022-10-17T13:02:19.205Z,7.97
2022-10-17T13:05:08.675Z,9.52
2022-10-17T13:07:44.478Z,6.68
2022-10-17T13:10:47.089Z,10.20
2022-10-17T13:13:31.062Z,7.18
2022-10-17T13:16:08.929Z,10.13
2022-10-17T13:18:52.659Z,6.63
2022-10-17T13:21:36.341Z,10.57
2022-10-17T13:24:33.406Z,7.78
2022-10-17T13:27:28.674Z,10.35
2022-10-17T13:30:05.330Z,5.75
2022-10-17T13:32:41.978Z,12.40
2022-10-17T13:35:36.569Z,9.98
2022-10-17T13:38:29.545Z,11.52
2022-10-17T13:41:35.240Z,9.35
2022-10-17T13:44:20.466Z,11.88
2022-10-17T13:46:55.986Z,9.80
2022-10-17T13:49:45.457Z,7.63
2022-10-17T13:52:22.541Z,7.07
2022-10-17T13:55:01.313Z,14.65
2022-10-17T13:57:34.358Z,20.05
2022-10-17T14:00:22.926Z,5.97
2022-10-17T14:03:06.023Z,7.93
2022-10-17T14:05:56.498Z,10.80
2022-10-17T14:08:32.152Z,8.10
2022-10-17T14:11:26.573Z,9.27
2022-10-17T14:14:09.816Z,15.55
2022-10-17T14:16:53.366Z,12.20
2022-10-17T14:19:40.791Z,13.63
2022-10-17T14:22:34.541Z,12.13
2022-10-17T14:25:30.002Z,8.90
2022-10-17T14:28:18.416Z,7.47
2022-10-17T14:31:13.423Z,9.20
2022-10-17T14:33:56.224Z,12.38
2022-10-17T14:36:43.310Z,12.18
2022-10-17T14:39:32.371Z,11.82
2022-10-17T14:42:08.117Z,17.00
2022-10-17T14:44:48.486Z,13.15
2022-10-17T14:47:50.102Z,17.17
2022-10-17T14:50:36.254Z,13.63
2022-10-17T14:53:30.932Z,9.55
2022-10-17T14:56:22.502Z,11.27
2022-10-17T14:59:05.676Z,16.63
2022-10-17T15:01:42.765Z,26.95
2022-10-17T15:04:15.546Z,20.45
2022-10-17T15:06:53.829Z,28.73
2022-10-17T15:09:39.925Z,27.50
2022-10-17T15:12:17.481Z,17.85
2022-10-17T15:14:53.247Z,10.95
2022-10-17T15:17:40.183Z,11.90
2022-10-17T15:20:21.133Z,23.42
2022-10-17T15:22:59.523Z,10.48
2022-10-17T15:25:33.260Z,15.10
2022-10-17T15:30:46.156Z,16.25
2022-10-17T15:33:20.909Z,24.77
2022-10-17T15:38:48.018Z,27.65
2022-10-17T15:41:20.264Z,48.88
2022-10-17T15:43:55.275Z,55.08
2022-10-17T15:46:40.429Z,53.00
2022-10-17T15:49:18.085Z,80.75
2022-10-17T15:51:55.554Z,42.65
2022-10-17T15:54:35.598Z,43.25
2022-10-17T15:57:23.300Z,39.42
2022-10-17T16:00:01.420Z,32.42
2022-10-17T16:02:37.428Z,31.23
2022-10-17T16:05:26.430Z,44.65
2022-10-17T16:08:13.363Z,50.50
2022-10-17T16:10:51.215Z,43.45
2022-10-17T16:13:25.721Z,37.35
2022-10-17T16:16:05.301Z,25.27
2022-10-17T16:18:41.064Z,23.88
2022-10-17T16:21:12.867Z,40.80
2022-10-17T16:23:50.804Z,36.92
2022-10-17T16:26:20.092Z,32.08
2022-10-17T16:28:56.155Z,35.88
2022-10-17T16:31:38.971Z,26.65
2022-10-17T16:34:16.977Z,41.42
2022-10-17T16:36:56.812Z,39.67
2022-10-17T16:39:34.213Z,25.27
2022-10-17T16:42:08.549Z,23.92
2022-10-17T16:44:35.494Z,31.08
2022-10-17T16:47:13.273Z,42.25
2022-10-17T16:49:45.554Z,33.70
2022-10-17T16:52:18.121Z,33.42
2022-10-17T16:54:50.914Z,29.52
2022-10-17T16:57:24.037Z,26.67
2022-10-17T16:59:56.437Z,32.60
2022-10-17T17:02:29.275Z,43.65
2022-10-17T17:05:10.035Z,39.20
2022-10-17T17:07:42.919Z,37.90
2022-10-17T17:10:17.904Z,35.05
2022-10-17T17:12:50.544Z,36.42
2022-10-17T17:15:22.916Z,35.83
2022-10-17T17:18:05.327Z,26.52
2022-10-17T17:20:40.719Z,33.70
2022-10-17T17:23:16.311Z,45.22
2022-10-17T17:25:50.687Z,31.58
2022-10-17T17:28:28.107Z,48.63
2022-10-17T17:31:09.269Z,39.97
2022-10-17T17:33:52.089Z,42.70
2022-10-17T17:36:29.420Z,33.97
2022-10-17T17:39:03.507Z,39.47
2022-10-17T17:41:35.775Z,43.10
2022-10-17T17:44:15.573Z,44.63
2022-10-17T17:46:54.534Z,36.38
2022-10-17T17:49:31.802Z,44.72
2022-10-17T17:52:09.120Z,46.50
2022-10-17T17:54:46.567Z,45.20
2022-10-17T17:57:24.471Z,40.10
2022-10-17T17:59:59.517Z,50.17
2022-10-17T18:02:59.832Z,47.42
2022-10-17T18:05:35.448Z,38.28
2022-10-17T18:08:07.876Z,43.05
2022-10-17T18:10:58.818Z,38.92
2022-10-17T18:13:34.802Z,37.58
2022-10-17T18:16:13.413Z,53.03
2022-10-17T18:18:53.582Z,49.38
2022-10-17T18:21:28.492Z,44.67
2022-10-17T18:24:12.055Z,47.00
2022-10-17T18:26:48.931Z,56.63
2022-10-17T18:29:29.462Z,52.85
2022-10-17T18:32:07.630Z,69.70
2022-10-17T18:34:44.346Z,69.63
2022-10-17T18:37:19.779Z,77.93
2022-10-17T18:40:03.198Z,76.25
2022-10-17T18:42:42.583Z,100.07
2022-10-17T18:45:21.131Z,116.28
2022-10-17T18:47:58.833Z,115.60
2022-10-17T18:50:39.369Z,139.43
2022-10-17T18:53:18.424Z,127.10
2022-10-17T18:55:50.628Z,133.25
2022-10-17T18:58:28.484Z,113.32
2022-10-17T19:01:07.041Z,107.82
2022-10-17T19:03:39.141Z,96.65
2022-10-17T19:06:20.449Z,86.28
2022-10-17T19:08:53.466Z,90.65
2022-10-17T19:13:59.114Z,62.80
2022-10-17T19:16:44.008Z,67.63
2022-10-17T19:19:23.329Z,80.07
2022-10-17T19:22:02.333Z,81.28
2022-10-17T19:24:39.486Z,76.10
2022-10-17T19:27:20.287Z,89.25
2022-10-17T19:30:01.123Z,104.57
2022-10-17T19:32:33.132Z,88.75
2022-10-17T19:35:11.190Z,94.45
2022-10-17T19:37:54.991Z,100.95
2022-10-17T19:40:38.851Z,84.38
2022-10-17T19:43:20.982Z,73.40
2022-10-17T19:46:04.655Z,63.25
2022-10-17T19:48:39.454Z,61.05
2022-10-17T19:51:19.859Z,54.78
2022-10-17T19:54:00.274Z,50.72
2022-10-17T19:56:44.129Z,45.13
2022-10-17T19:59:28.588Z,45.13
2022-10-17T20:02:16.236Z,62.17
2022-10-17T20:05:00.185Z,51.58
2022-10-17T20:07:51.282Z,56.58
2022-10-17T20:10:26.611Z,58.42
2022-10-17T20:13:13.156Z,53.78
2022-10-17T20:16:08.714Z,53.17
2022-10-17T20:18:41.267Z,47.15
2022-10-17T20:21:23.470Z,46.38
2022-10-17T20:23:56.365Z,43.08
2022-10-17T20:26:38.531Z,44.17
2022-10-17T20:29:19.736Z,45.90
2022-10-17T20:32:02.709Z,43.05
2022-10-17T20:34:41.168Z,39.88
2022-10-17T20:37:14.826Z,40.92
2022-10-17T20:40:16.831Z,45.58
2022-10-17T20:43:01.340Z,48.50
2022-10-17T20:45:50.813Z,41.78
2022-10-17T20:48:30.736Z,36.83
2022-10-17T20:51:08.518Z,39.40
2022-10-17T20:53:47.146Z,44.00
2022-10-17T20:56:23.595Z,49.75
2022-10-17T20:59:07.596Z,44.95
2022-10-17T21:04:44.710Z,40.17
2022-10-17T21:07:22.618Z,47.75
2022-10-17T21:10:00.313Z,43.03
2022-10-17T21:12:53.269Z,47.20
2022-10-17T21:15:33.443Z,40.05
2022-10-17T21:18:20.371Z,40.40
2022-10-17T21:20:55.084Z,42.75
2022-10-17T21:23:31.083Z,46.28
2022-10-17T21:26:07.223Z,38.75
2022-10-17T21:28:43.055Z,39.20
2022-10-17T21:31:24.273Z,46.28
2022-10-17T21:34:18.675Z,33.15
2022-10-17T21:36:54.925Z,34.10
2022-10-17T21:39:30.505Z,36.22
2022-10-17T21:42:11.050Z,32.35
2022-10-17T21:44:46.397Z,35.78
2022-10-17T21:47:22.328Z,30.08
2022-10-17T21:50:04.120Z,28.65
2022-10-17T21:52:36.263Z,31.00
2022-10-17T21:55:15.856Z,25.30
2022-10-17T21:57:50.605Z,26.73
2022-10-17T22:00:39.377Z,28.98
2022-10-17T22:03:19.371Z,28.48
2022-10-17T22:06:33.419Z,24.98
2022-10-17T22:09:11.027Z,25.15
2022-10-17T22:11:47.133Z,38.17
2022-10-17T22:14:26.798Z,23.45
2022-10-17T22:17:04.536Z,26.15
2022-10-17T22:19:41.743Z,24.70
2022-10-17T22:22:16.483Z,26.52
2022-10-17T22:24:53.747Z,25.33
2022-10-17T22:27:32.142Z,23.33
2022-10-17T22:30:13.325Z,23.23
2022-10-17T22:32:54.989Z,26.50
2022-10-17T22:35:39.843Z,32.28
2022-10-17T22:38:15.938Z,30.48
2022-10-17T22:40:51.489Z,27.77
2022-10-17T22:43:26.051Z,27.08
2022-10-17T22:46:01.498Z,27.00
2022-10-17T22:48:45.512Z,28.73
2022-10-17T22:54:09.202Z,25.85
2022-10-17T22:56:41.553Z,25.15
2022-10-17T22:59:21.710Z,24.65
2022-10-17T23:02:02.114Z,27.55
2022-10-17T23:04:41.755Z,25.63
2022-10-17T23:07:22.271Z,30.75
2022-10-17T23:10:00.386Z,30.05
2022-10-17T23:12:35.153Z,27.90
2022-10-17T23:15:16.060Z,28.35
2022-10-17T23:17:51.545Z,29.90
2022-10-17T23:20:31.918Z,30.33
2022-10-17T23:23:07.529Z,29.85
2022-10-17T23:25:42.414Z,29.20
2022-10-17T23:28:24.021Z,31.58
2022-10-17T23:31:14.563Z,35.75
2022-10-17T23:33:50.549Z,32.83
2022-10-17T23:36:23.751Z,33.50
2022-10-17T23:39:01.149Z,30.35
2022-10-17T23:41:31.117Z,32.97
2022-10-17T23:44:13.171Z,32.20
2022-10-17T23:46:51.290Z,33.08
2022-10-17T23:49:25.233Z,37.75
2022-10-17T23:52:04.471Z,34.85
2022-10-17T23:54:44.479Z,31.27
2022-10-17T23:57:28.817Z,35.65
